sensor_id;sensor_type;location;lat;lon;timestamp;pressure;altitude;pressure_sealevel;temperature;humidity
36932;BME280;22847;42.654;23.370;2023-03-22T00:01:08;94314.47;;;12.64;73.18
36932;BME280;22847;42.654;23.370;2023-03-22T00:03:34;94251.41;;;12.27;73.12
36932;BME280;22847;42.654;23.370;2023-03-22T00:05:59;94286.34;;;12.58;72.99
36932;BME280;22847;42.654;23.370;2023-03-22T00:08:25;94282.78;;;12.51;73.17
36932;BME280;22847;42.654;23.370;2023-03-22T00:10:50;94131.25;;;11.46;74.04
36932;BME280;22847;42.654;23.370;2023-03-22T00:13:16;94318.56;;;12.59;74.08
36932;BME280;22847;42.654;23.370;2023-03-22T00:15:42;94349.41;;;12.79;74.34
36932;BME280;22847;42.654;23.370;2023-03-22T00:18:10;94337.03;;;12.65;75.18
36932;BME280;22847;42.654;23.370;2023-03-22T00:20:36;94328.69;;;12.70;75.40
36932;BME280;22847;42.654;23.370;2023-03-22T00:23:03;94359.56;;;12.66;75.92
36932;BME280;22847;42.654;23.370;2023-03-22T00:25:29;94031.22;;;10.72;75.05
36932;BME280;22847;42.654;23.370;2023-03-22T00:27:55;94261.38;;;12.23;75.07
36932;BME280;22847;42.654;23.370;2023-03-22T00:30:20;94332.09;;;12.70;75.41
36932;BME280;22847;42.654;23.370;2023-03-22T00:32:46;94321.19;;;12.42;76.63
36932;BME280;22847;42.654;23.370;2023-03-22T00:35:11;94244.25;;;12.04;75.83
36932;BME280;22847;42.654;23.370;2023-03-22T00:37:37;94171.09;;;11.72;74.89
36932;BME280;22847;42.654;23.370;2023-03-22T00:40:04;94296.16;;;12.40;75.49
36932;BME280;22847;42.654;23.370;2023-03-22T00:42:33;94242.94;;;12.08;76.16
36932;BME280;22847;42.654;23.370;2023-03-22T00:44:58;94268.25;;;12.08;77.04
36932;BME280;22847;42.654;23.370;2023-03-22T00:47:24;94315.47;;;12.31;76.84
36932;BME280;22847;42.654;23.370;2023-03-22T00:49:49;94310.25;;;12.47;75.78
36932;BME280;22847;42.654;23.370;2023-03-22T00:52:15;94240.31;;;12.08;75.05
36932;BME280;22847;42.654;23.370;2023-03-22T00:54:40;94326.56;;;12.41;74.85
36932;BME280;22847;42.654;23.370;2023-03-22T00:57:05;94318.03;;;12.71;74.17
36932;BME280;22847;42.654;23.370;2023-03-22T00:59:32;94315.13;;;12.42;75.38
36932;BME280;22847;42.654;23.370;2023-03-22T01:02:02;94321.00;;;12.44;76.17
36932;BME280;22847;42.654;23.370;2023-03-22T01:04:29;94304.00;;;12.07;76.27
36932;BME280;22847;42.654;23.370;2023-03-22T01:06:55;94312.50;;;12.34;76.52
36932;BME280;22847;42.654;23.370;2023-03-22T01:09:25;94319.53;;;12.41;75.68
36932;BME280;22847;42.654;23.370;2023-03-22T01:11:54;94309.72;;;12.35;75.75
36932;BME280;22847;42.654;23.370;2023-03-22T01:14:21;94111.34;;;11.21;75.24
36932;BME280;22847;42.654;23.370;2023-03-22T01:16:46;94309.56;;;12.45;75.68
36932;BME280;22847;42.654;23.370;2023-03-22T01:19:12;94322.47;;;12.22;76.25
36932;BME280;22847;42.654;23.370;2023-03-22T01:21:37;94272.00;;;11.97;76.53
36932;BME280;22847;42.654;23.370;2023-03-22T01:24:03;94302.53;;;12.21;76.71
36932;BME280;22847;42.654;23.370;2023-03-22T01:26:28;94286.72;;;12.23;76.46
36932;BME280;22847;42.654;23.370;2023-03-22T01:28:54;94242.75;;;11.94;76.65
36932;BME280;22847;42.654;23.370;2023-03-22T01:31:19;94267.44;;;11.99;77.43
36932;BME280;22847;42.654;23.370;2023-03-22T01:33:44;94085.84;;;10.82;77.65
36932;BME280;22847;42.654;23.370;2023-03-22T01:36:10;94290.31;;;12.05;78.17
36932;BME280;22847;42.654;23.370;2023-03-22T01:38:35;94284.09;;;12.06;77.60
36932;BME280;22847;42.654;23.370;2023-03-22T01:41:01;94290.28;;;12.22;77.02
36932;BME280;22847;42.654;23.370;2023-03-22T01:43:26;94286.03;;;12.13;77.08
36932;BME280;22847;42.654;23.370;2023-03-22T01:45:52;94286.69;;;11.90;78.84
36932;BME280;22847;42.654;23.370;2023-03-22T01:48:29;94294.53;;;11.90;78.17
36932;BME280;22847;42.654;23.370;2023-03-22T01:51:21;94285.06;;;12.05;78.27
36932;BME280;22847;42.654;23.370;2023-03-22T01:53:52;94283.44;;;11.96;78.48
36932;BME280;22847;42.654;23.370;2023-03-22T01:56:22;94283.94;;;12.00;78.81
36932;BME280;22847;42.654;23.370;2023-03-22T01:58:48;94107.72;;;10.97;78.32
36932;BME280;22847;42.654;23.370;2023-03-22T02:01:15;94286.06;;;11.96;78.53
36932;BME280;22847;42.654;23.370;2023-03-22T02:03:54;94324.56;;;12.02;78.33
36932;BME280;22847;42.654;23.370;2023-03-22T02:06:20;94252.06;;;11.72;79.03
36932;BME280;22847;42.654;23.370;2023-03-22T02:08:45;94270.88;;;11.84;79.07
36932;BME280;22847;42.654;23.370;2023-03-22T02:11:16;94131.34;;;11.04;78.85
36932;BME280;22847;42.654;23.370;2023-03-22T02:16:56;94291.09;;;11.82;79.79
36932;BME280;22847;42.654;23.370;2023-03-22T02:22:34;94286.34;;;11.93;79.39
36932;BME280;22847;42.654;23.370;2023-03-22T02:26:00;94264.75;;;11.67;79.26
36932;BME280;22847;42.654;23.370;2023-03-22T02:39:21;94309.72;;;11.79;79.68
36932;BME280;22847;42.654;23.370;2023-03-22T02:42:22;94297.75;;;11.76;79.28
36932;BME280;22847;42.654;23.370;2023-03-22T02:45:27;94115.81;;;10.78;78.58
36932;BME280;22847;42.654;23.370;2023-03-22T02:52:56;94264.88;;;11.57;78.35
36932;BME280;22847;42.654;23.370;2023-03-22T02:55:53;94128.34;;;10.66;78.64
36932;BME280;22847;42.654;23.370;2023-03-22T02:58:26;94138.66;;;10.76;78.31
36932;BME280;22847;42.654;23.370;2023-03-22T03:01:00;94304.63;;;11.77;78.51
36932;BME280;22847;42.654;23.370;2023-03-22T03:03:28;94309.81;;;11.69;78.26
36932;BME280;22847;42.654;23.370;2023-03-22T03:05:59;94309.72;;;11.79;77.94
36932;BME280;22847;42.654;23.370;2023-03-22T03:08:27;94315.09;;;11.35;79.66
36932;BME280;22847;42.654;23.370;2023-03-22T03:10:54;94304.00;;;11.33;78.97
36932;BME280;22847;42.654;23.370;2023-03-22T03:13:20;94095.34;;;10.41;78.39
36932;BME280;22847;42.654;23.370;2023-03-22T03:15:50;94238.03;;;11.15;78.21
36932;BME280;22847;42.654;23.370;2023-03-22T03:18:42;94315.09;;;11.93;77.08
36932;BME280;22847;42.654;23.370;2023-03-22T03:21:33;94315.41;;;11.82;77.49
36932;BME280;22847;42.654;23.370;2023-03-22T03:27:15;94321.94;;;11.78;77.80
36932;BME280;22847;42.654;23.370;2023-03-22T03:29:53;94111.19;;;10.56;76.54
36932;BME280;22847;42.654;23.370;2023-03-22T03:32:31;94322.78;;;11.87;77.33
36932;BME280;22847;42.654;23.370;2023-03-22T03:35:33;94320.97;;;11.87;77.50
36932;BME280;22847;42.654;23.370;2023-03-22T03:38:11;94315.50;;;11.64;77.31
36932;BME280;22847;42.654;23.370;2023-03-22T03:40:44;94298.00;;;11.49;77.26
36932;BME280;22847;42.654;23.370;2023-03-22T03:43:12;94321.09;;;11.70;75.89
36932;BME280;22847;42.654;23.370;2023-03-22T03:45:39;94137.78;;;10.67;75.82
36932;BME280;22847;42.654;23.370;2023-03-22T03:48:07;94264.72;;;11.43;76.04
36932;BME280;22847;42.654;23.370;2023-03-22T03:50:35;94343.63;;;11.71;76.79
36932;BME280;22847;42.654;23.370;2023-03-22T03:53:01;94298.94;;;11.32;77.34
36932;BME280;22847;42.654;23.370;2023-03-22T03:55:27;94326.25;;;11.53;77.32
36932;BME280;22847;42.654;23.370;2023-03-22T03:57:53;94350.75;;;11.52;77.83
36932;BME280;22847;42.654;23.370;2023-03-22T04:00:18;94169.53;;;10.63;77.00
36932;BME280;22847;42.654;23.370;2023-03-22T04:02:44;94308.28;;;11.50;76.73
36932;BME280;22847;42.654;23.370;2023-03-22T04:05:11;94324.28;;;11.47;77.79
36932;BME280;22847;42.654;23.370;2023-03-22T04:07:37;94353.38;;;11.69;76.96
36932;BME280;22847;42.654;23.370;2023-03-22T04:10:03;94298.88;;;11.15;77.32
36932;BME280;22847;42.654;23.370;2023-03-22T04:12:29;94339.25;;;11.79;76.81
36932;BME280;22847;42.654;23.370;2023-03-22T04:14:55;94287.41;;;11.50;76.27
36932;BME280;22847;42.654;23.370;2023-03-22T04:17:21;94342.44;;;11.57;77.18
36932;BME280;22847;42.654;23.370;2023-03-22T04:19:46;94313.78;;;11.39;76.48
36932;BME280;22847;42.654;23.370;2023-03-22T04:22:12;94326.31;;;11.70;76.01
36932;BME280;22847;42.654;23.370;2023-03-22T04:24:43;94188.78;;;10.62;76.85
36932;BME280;22847;42.654;23.370;2023-03-22T04:27:18;94295.72;;;11.46;76.46
36932;BME280;22847;42.654;23.370;2023-03-22T04:29:43;94347.59;;;11.83;75.98
36932;BME280;22847;42.654;23.370;2023-03-22T04:32:14;94344.63;;;11.78;76.30
36932;BME280;22847;42.654;23.370;2023-03-22T04:34:41;94350.28;;;11.65;76.84
36932;BME280;22847;42.654;23.370;2023-03-22T04:37:06;94333.09;;;11.54;76.95
36932;BME280;22847;42.654;23.370;2023-03-22T04:39:32;94350.88;;;11.51;77.05
36932;BME280;22847;42.654;23.370;2023-03-22T04:41:57;94352.56;;;11.60;76.69
36932;BME280;22847;42.654;23.370;2023-03-22T04:44:23;94364.09;;;11.49;77.50
36932;BME280;22847;42.654;23.370;2023-03-22T04:46:48;94305.16;;;11.39;77.39
36932;BME280;22847;42.654;23.370;2023-03-22T04:49:13;94336.22;;;11.58;76.51
36932;BME280;22847;42.654;23.370;2023-03-22T04:51:39;94356.75;;;11.87;76.49
36932;BME280;22847;42.654;23.370;2023-03-22T04:54:05;94270.38;;;10.88;78.09
36932;BME280;22847;42.654;23.370;2023-03-22T04:56:30;94359.13;;;11.72;77.36
36932;BME280;22847;42.654;23.370;2023-03-22T04:58:55;94383.66;;;11.79;77.29
36932;BME280;22847;42.654;23.370;2023-03-22T05:01:21;94195.56;;;10.55;77.52
36932;BME280;22847;42.654;23.370;2023-03-22T05:03:46;94305.66;;;11.34;78.09
36932;BME280;22847;42.654;23.370;2023-03-22T05:06:12;94281.94;;;11.19;77.83
36932;BME280;22847;42.654;23.370;2023-03-22T05:08:37;94197.13;;;10.73;77.03
36932;BME280;22847;42.654;23.370;2023-03-22T05:11:11;94376.56;;;11.72;77.83
36932;BME280;22847;42.654;23.370;2023-03-22T05:13:39;94316.63;;;11.54;78.01
36932;BME280;22847;42.654;23.370;2023-03-22T05:16:05;94228.69;;;10.96;76.68
36932;BME280;22847;42.654;23.370;2023-03-22T05:18:31;94056.09;;;9.75;76.88
36932;BME280;22847;42.654;23.370;2023-03-22T05:20:59;94378.75;;;11.84;76.95
36932;BME280;22847;42.654;23.370;2023-03-22T05:23:25;94400.94;;;11.72;77.21
36932;BME280;22847;42.654;23.370;2023-03-22T05:25:54;94386.84;;;11.65;77.79
36932;BME280;22847;42.654;23.370;2023-03-22T05:28:23;94370.97;;;11.58;76.83
36932;BME280;22847;42.654;23.370;2023-03-22T05:30:49;94389.50;;;11.73;77.07
36932;BME280;22847;42.654;23.370;2023-03-22T05:33:16;94328.69;;;11.47;76.52
36932;BME280;22847;42.654;23.370;2023-03-22T05:35:45;94316.56;;;11.30;76.64
36932;BME280;22847;42.654;23.370;2023-03-22T05:38:11;94231.53;;;10.77;76.49
36932;BME280;22847;42.654;23.370;2023-03-22T05:40:36;94392.78;;;11.75;76.55
36932;BME280;22847;42.654;23.370;2023-03-22T05:43:01;94391.50;;;11.79;77.22
36932;BME280;22847;42.654;23.370;2023-03-22T05:45:27;94395.78;;;11.88;76.71
36932;BME280;22847;42.654;23.370;2023-03-22T05:47:52;94200.81;;;10.63;76.65
36932;BME280;22847;42.654;23.370;2023-03-22T05:50:21;94399.50;;;11.86;76.41
36932;BME280;22847;42.654;23.370;2023-03-22T05:52:47;94375.22;;;11.51;77.53
36932;BME280;22847;42.654;23.370;2023-03-22T05:55:14;94394.75;;;11.81;77.13
36932;BME280;22847;42.654;23.370;2023-03-22T05:57:42;94216.19;;;10.66;77.08
36932;BME280;22847;42.654;23.370;2023-03-22T06:00:10;94263.25;;;10.98;77.02
36932;BME280;22847;42.654;23.370;2023-03-22T06:02:46;94420.84;;;11.73;77.95
36932;BME280;22847;42.654;23.370;2023-03-22T06:05:13;94407.66;;;11.75;77.63
36932;BME280;22847;42.654;23.370;2023-03-22T06:07:40;94419.09;;;11.90;76.78
36932;BME280;22847;42.654;23.370;2023-03-22T06:10:08;94419.72;;;11.76;76.65
36932;BME280;22847;42.654;23.370;2023-03-22T06:12:33;94448.66;;;11.90;76.88
36932;BME280;22847;42.654;23.370;2023-03-22T06:14:59;94416.50;;;11.98;75.69
36932;BME280;22847;42.654;23.370;2023-03-22T06:17:25;94433.69;;;12.00;75.84
36932;BME280;22847;42.654;23.370;2023-03-22T06:19:50;94267.47;;;10.99;75.66
36932;BME280;22847;42.654;23.370;2023-03-22T06:22:17;94438.59;;;11.70;77.55
36932;BME280;22847;42.654;23.370;2023-03-22T06:24:42;94442.28;;;11.85;76.69
36932;BME280;22847;42.654;23.370;2023-03-22T06:27:08;94404.22;;;11.82;76.21
36932;BME280;22847;42.654;23.370;2023-03-22T06:29:33;94433.34;;;12.03;76.36
36932;BME280;22847;42.654;23.370;2023-03-22T06:32:00;94211.56;;;10.60;76.24
36932;BME280;22847;42.654;23.370;2023-03-22T06:34:25;94410.44;;;11.89;76.53
36932;BME280;22847;42.654;23.370;2023-03-22T06:36:51;94430.03;;;11.85;77.45
36932;BME280;22847;42.654;23.370;2023-03-22T06:39:20;94423.88;;;12.02;76.71
36932;BME280;22847;42.654;23.370;2023-03-22T06:41:45;94374.53;;;11.83;76.26
36932;BME280;22847;42.654;23.370;2023-03-22T06:44:11;94468.22;;;12.28;76.70
36932;BME280;22847;42.654;23.370;2023-03-22T06:46:36;94404.09;;;11.92;77.42
36932;BME280;22847;42.654;23.370;2023-03-22T06:49:02;94444.22;;;12.33;76.52
36932;BME280;22847;42.654;23.370;2023-03-22T06:51:28;94280.69;;;11.40;76.57
36932;BME280;22847;42.654;23.370;2023-03-22T06:53:53;94413.50;;;12.27;75.85
36932;BME280;22847;42.654;23.370;2023-03-22T06:56:19;94440.94;;;12.31;75.60
36932;BME280;22847;42.654;23.370;2023-03-22T06:58:44;94367.06;;;12.04;75.42
36932;BME280;22847;42.654;23.370;2023-03-22T07:01:10;94444.91;;;12.59;74.54
36932;BME280;22847;42.654;23.370;2023-03-22T07:03:35;94347.13;;;12.03;73.68
36932;BME280;22847;42.654;23.370;2023-03-22T07:06:02;94427.25;;;12.53;73.71
36932;BME280;22847;42.654;23.370;2023-03-22T07:08:28;94479.91;;;12.74;73.61
36932;BME280;22847;42.654;23.370;2023-03-22T07:10:53;94478.59;;;12.70;74.27
36932;BME280;22847;42.654;23.370;2023-03-22T07:13:19;94460.13;;;12.80;73.90
36932;BME280;22847;42.654;23.370;2023-03-22T07:15:44;94464.19;;;12.58;74.00
36932;BME280;22847;42.654;23.370;2023-03-22T07:18:10;94437.38;;;12.40;74.26
36932;BME280;22847;42.654;23.370;2023-03-22T07:20:35;94467.97;;;12.64;73.91
36932;BME280;22847;42.654;23.370;2023-03-22T07:23:03;94439.00;;;12.41;74.00
36932;BME280;22847;42.654;23.370;2023-03-22T07:25:28;94438.38;;;12.47;73.42
36932;BME280;22847;42.654;23.370;2023-03-22T07:27:54;94479.25;;;12.56;73.06
36932;BME280;22847;42.654;23.370;2023-03-22T07:30:19;94464.00;;;12.35;72.66
36932;BME280;22847;42.654;23.370;2023-03-22T07:32:45;94250.06;;;11.08;72.64
36932;BME280;22847;42.654;23.370;2023-03-22T07:35:10;94496.91;;;12.62;72.37
36932;BME280;22847;42.654;23.370;2023-03-22T07:37:35;94254.16;;;11.10;72.96
36932;BME280;22847;42.654;23.370;2023-03-22T07:40:01;94436.19;;;12.18;72.70
36932;BME280;22847;42.654;23.370;2023-03-22T07:42:28;94510.47;;;12.66;72.56
36932;BME280;22847;42.654;23.370;2023-03-22T07:44:55;94475.94;;;12.46;72.81
36932;BME280;22847;42.654;23.370;2023-03-22T07:47:20;94491.44;;;12.39;72.50
36932;BME280;22847;42.654;23.370;2023-03-22T07:49:46;94499.16;;;12.57;73.39
36932;BME280;22847;42.654;23.370;2023-03-22T07:52:11;94277.69;;;11.27;72.20
36932;BME280;22847;42.654;23.370;2023-03-22T07:54:37;94219.19;;;10.87;71.07
36932;BME280;22847;42.654;23.370;2023-03-22T07:57:03;94515.19;;;12.54;70.96
36932;BME280;22847;42.654;23.370;2023-03-22T07:59:28;94509.66;;;12.65;70.85
36932;BME280;22847;42.654;23.370;2023-03-22T08:01:53;94487.22;;;12.46;71.55
36932;BME280;22847;42.654;23.370;2023-03-22T08:04:19;94518.97;;;12.60;71.45
36932;BME280;22847;42.654;23.370;2023-03-22T08:06:46;94327.28;;;11.69;71.31
36932;BME280;22847;42.654;23.370;2023-03-22T08:09:13;94499.00;;;12.50;71.88
36932;BME280;22847;42.654;23.370;2023-03-22T08:11:38;94503.97;;;12.78;71.60
36932;BME280;22847;42.654;23.370;2023-03-22T08:14:03;94312.72;;;11.58;71.56
36932;BME280;22847;42.654;23.370;2023-03-22T08:16:29;94475.19;;;12.12;74.24
36932;BME280;22847;42.654;23.370;2023-03-22T08:18:55;94473.94;;;12.24;73.98
36932;BME280;22847;42.654;23.370;2023-03-22T08:21:20;94496.00;;;12.29;74.37
36932;BME280;22847;42.654;23.370;2023-03-22T08:23:45;94488.16;;;12.29;73.89
36932;BME280;22847;42.654;23.370;2023-03-22T08:26:11;94503.91;;;12.62;72.81
36932;BME280;22847;42.654;23.370;2023-03-22T08:28:36;94312.56;;;11.17;73.95
36932;BME280;22847;42.654;23.370;2023-03-22T08:31:09;94514.63;;;12.34;74.84
36932;BME280;22847;42.654;23.370;2023-03-22T08:33:35;94478.84;;;12.35;73.86
36932;BME280;22847;42.654;23.370;2023-03-22T08:36:09;94361.06;;;11.70;74.35
36932;BME280;22847;42.654;23.370;2023-03-22T08:38:35;94510.31;;;12.67;72.45
36932;BME280;22847;42.654;23.370;2023-03-22T08:41:00;94482.50;;;12.50;72.37
36932;BME280;22847;42.654;23.370;2023-03-22T08:43:27;94510.78;;;12.71;71.90
36932;BME280;22847;42.654;23.370;2023-03-22T08:45:52;94509.34;;;12.60;72.47
36932;BME280;22847;42.654;23.370;2023-03-22T08:48:18;94508.31;;;12.53;71.96
36932;BME280;22847;42.654;23.370;2023-03-22T08:50:43;94482.78;;;12.31;72.50
36932;BME280;22847;42.654;23.370;2023-03-22T08:53:09;94347.66;;;11.65;72.35
36932;BME280;22847;42.654;23.370;2023-03-22T08:55:35;94526.34;;;12.64;72.53
36932;BME280;22847;42.654;23.370;2023-03-22T08:58:01;94508.03;;;12.80;72.72
36932;BME280;22847;42.654;23.370;2023-03-22T09:00:28;94495.94;;;12.71;72.63
36932;BME280;22847;42.654;23.370;2023-03-22T09:02:54;94443.28;;;12.50;72.33
36932;BME280;22847;42.654;23.370;2023-03-22T09:05:20;94521.44;;;12.77;72.58
36932;BME280;22847;42.654;23.370;2023-03-22T09:07:45;94503.63;;;12.73;71.99
36932;BME280;22847;42.654;23.370;2023-03-22T09:10:11;94524.91;;;12.94;72.04
36932;BME280;22847;42.654;23.370;2023-03-22T09:12:37;94354.63;;;11.90;71.70
36932;BME280;22847;42.654;23.370;2023-03-22T09:15:02;94499.22;;;12.73;72.49
36932;BME280;22847;42.654;23.370;2023-03-22T09:17:28;94525.72;;;13.03;72.04
36932;BME280;22847;42.654;23.370;2023-03-22T09:19:53;94541.09;;;12.97;72.26
36932;BME280;22847;42.654;23.370;2023-03-22T09:22:19;94325.19;;;11.80;72.28
36932;BME280;22847;42.654;23.370;2023-03-22T09:24:45;94544.72;;;12.96;72.24
36932;BME280;22847;42.654;23.370;2023-03-22T09:27:10;94530.94;;;13.03;72.04
36932;BME280;22847;42.654;23.370;2023-03-22T09:29:36;94492.00;;;12.83;71.71
36932;BME280;22847;42.654;23.370;2023-03-22T09:32:01;94513.47;;;12.87;71.77
36932;BME280;22847;42.654;23.370;2023-03-22T09:34:26;94518.84;;;13.02;72.25
36932;BME280;22847;42.654;23.370;2023-03-22T09:36:52;94230.38;;;11.22;71.48
36932;BME280;22847;42.654;23.370;2023-03-22T09:39:17;94528.19;;;12.96;71.75
36932;BME280;22847;42.654;23.370;2023-03-22T09:41:46;94502.00;;;12.96;71.85
36932;BME280;22847;42.654;23.370;2023-03-22T09:44:20;94510.16;;;12.93;72.00
36932;BME280;22847;42.654;23.370;2023-03-22T09:46:48;94530.53;;;13.23;72.29
36932;BME280;22847;42.654;23.370;2023-03-22T09:49:19;94498.72;;;13.02;72.32
36932;BME280;22847;42.654;23.370;2023-03-22T09:51:50;94503.81;;;13.04;71.88
36932;BME280;22847;42.654;23.370;2023-03-22T09:56:53;94519.72;;;13.18;72.34
36932;BME280;22847;42.654;23.370;2023-03-22T09:59:31;94502.50;;;12.91;73.17
36932;BME280;22847;42.654;23.370;2023-03-22T10:02:01;94481.56;;;13.00;73.33
36932;BME280;22847;42.654;23.370;2023-03-22T10:10:52;94454.88;;;12.64;71.76
36932;BME280;22847;42.654;23.370;2023-03-22T10:16:28;94516.91;;;13.04;71.64
36932;BME280;22847;42.654;23.370;2023-03-22T10:19:04;94358.72;;;12.01;70.94
36932;BME280;22847;42.654;23.370;2023-03-22T10:21:35;94536.53;;;13.24;70.75
36932;BME280;22847;42.654;23.370;2023-03-22T10:24:15;94542.56;;;13.08;71.20
36932;BME280;22847;42.654;23.370;2023-03-22T10:26:45;94393.53;;;12.18;69.58
36932;BME280;22847;42.654;23.370;2023-03-22T10:29:35;94514.56;;;12.68;70.22
36932;BME280;22847;42.654;23.370;2023-03-22T10:32:28;94536.56;;;13.16;70.17
36932;BME280;22847;42.654;23.370;2023-03-22T10:34:54;94367.06;;;12.13;70.06
36932;BME280;22847;42.654;23.370;2023-03-22T10:37:22;94516.44;;;13.16;70.03
36932;BME280;22847;42.654;23.370;2023-03-22T10:39:52;94533.63;;;13.19;69.67
36932;BME280;22847;42.654;23.370;2023-03-22T10:42:22;94385.22;;;12.38;69.04
36932;BME280;22847;42.654;23.370;2023-03-22T10:44:55;94552.78;;;13.35;69.34
36932;BME280;22847;42.654;23.370;2023-03-22T10:47:40;94501.06;;;13.13;69.76
36932;BME280;22847;42.654;23.370;2023-03-22T10:50:15;94544.41;;;13.24;69.88
36932;BME280;22847;42.654;23.370;2023-03-22T10:52:54;94385.06;;;12.24;70.37
36932;BME280;22847;42.654;23.370;2023-03-22T10:55:23;94537.03;;;13.11;70.71
36932;BME280;22847;42.654;23.370;2023-03-22T10:58:18;94374.75;;;12.22;68.72
36932;BME280;22847;42.654;23.370;2023-03-22T11:00:46;94521.66;;;13.00;69.82
36932;BME280;22847;42.654;23.370;2023-03-22T11:06:05;94537.03;;;13.11;68.94
36932;BME280;22847;42.654;23.370;2023-03-22T11:09:01;94531.28;;;13.00;69.14
36932;BME280;22847;42.654;23.370;2023-03-22T11:11:55;94528.69;;;13.24;69.13
36932;BME280;22847;42.654;23.370;2023-03-22T11:17:06;94481.91;;;12.96;69.52
36932;BME280;22847;42.654;23.370;2023-03-22T11:19:34;94482.19;;;12.93;68.94
36932;BME280;22847;42.654;23.370;2023-03-22T11:22:01;94344.84;;;12.08;67.97
36932;BME280;22847;42.654;23.370;2023-03-22T11:24:31;94524.94;;;13.18;67.33
36932;BME280;22847;42.654;23.370;2023-03-22T11:27:24;94524.63;;;13.21;67.56
36932;BME280;22847;42.654;23.370;2023-03-22T11:29:52;94559.94;;;13.33;67.46
36932;BME280;22847;42.654;23.370;2023-03-22T11:32:28;94524.78;;;13.28;67.39
36932;BME280;22847;42.654;23.370;2023-03-22T11:34:59;94457.19;;;12.83;67.12
36932;BME280;22847;42.654;23.370;2023-03-22T11:37:25;94507.09;;;13.06;66.59
36932;BME280;22847;42.654;23.370;2023-03-22T11:39:58;94372.81;;;12.24;67.24
36932;BME280;22847;42.654;23.370;2023-03-22T11:42:25;94339.63;;;12.08;67.87
36932;BME280;22847;42.654;23.370;2023-03-22T11:44:51;94350.75;;;12.19;67.60
36932;BME280;22847;42.654;23.370;2023-03-22T11:47:17;94518.41;;;13.14;68.36
36932;BME280;22847;42.654;23.370;2023-03-22T11:49:49;94499.72;;;13.01;69.00
36932;BME280;22847;42.654;23.370;2023-03-22T11:52:19;94429.84;;;12.61;69.15
36932;BME280;22847;42.654;23.370;2023-03-22T11:54:47;94538.19;;;13.25;68.88
36932;BME280;22847;42.654;23.370;2023-03-22T11:57:16;94381.59;;;12.07;69.73
36932;BME280;22847;42.654;23.370;2023-03-22T11:59:56;94522.16;;;13.20;69.35
36932;BME280;22847;42.654;23.370;2023-03-22T12:02:30;94481.06;;;12.88;68.84
36932;BME280;22847;42.654;23.370;2023-03-22T12:05:26;94527.25;;;13.13;69.19
36932;BME280;22847;42.654;23.370;2023-03-22T12:08:26;94531.28;;;13.08;69.65
36932;BME280;22847;42.654;23.370;2023-03-22T12:11:00;94527.09;;;13.15;69.85
36932;BME280;22847;42.654;23.370;2023-03-22T12:16:02;94547.50;;;13.11;69.51
36932;BME280;22847;42.654;23.370;2023-03-22T12:18:50;94524.13;;;13.26;68.98
36932;BME280;22847;42.654;23.370;2023-03-22T12:21:18;94507.44;;;13.27;69.07
36932;BME280;22847;42.654;23.370;2023-03-22T12:23:44;94492.22;;;13.30;68.84
36932;BME280;22847;42.654;23.370;2023-03-22T12:31:20;94513.47;;;13.44;68.80
36932;BME280;22847;42.654;23.370;2023-03-22T12:33:50;94521.16;;;13.53;67.37
36932;BME280;22847;42.654;23.370;2023-03-22T12:36:21;94295.84;;;12.35;65.67
36932;BME280;22847;42.654;23.370;2023-03-22T12:38:48;94528.00;;;13.70;65.58
36932;BME280;22847;42.654;23.370;2023-03-22T12:41:35;94335.50;;;12.79;65.28
36932;BME280;22847;42.654;23.370;2023-03-22T12:46:53;94491.69;;;13.59;66.27
36932;BME280;22847;42.654;23.370;2023-03-22T12:52:16;94455.31;;;13.64;63.94
36932;BME280;22847;42.654;23.370;2023-03-22T12:54:43;94488.59;;;14.03;63.81
36932;BME280;22847;42.654;23.370;2023-03-22T12:57:10;94496.94;;;14.06;63.71
36932;BME280;22847;42.654;23.370;2023-03-22T12:59:36;94482.38;;;14.04;64.15
36932;BME280;22847;42.654;23.370;2023-03-22T13:02:11;94500.66;;;14.20;63.38
36932;BME280;22847;42.654;23.370;2023-03-22T13:27:41;94486.69;;;13.89;61.53
36932;BME280;22847;42.654;23.370;2023-03-22T13:33:14;94415.66;;;13.12;64.65
36932;BME280;22847;42.654;23.370;2023-03-22T13:35:48;94309.25;;;12.40;66.28
36932;BME280;22847;42.654;23.370;2023-03-22T13:48:41;94507.91;;;13.55;67.23
36932;BME280;22847;42.654;23.370;2023-03-22T13:59:17;94506.69;;;13.73;66.45
36932;BME280;22847;42.654;23.370;2023-03-22T14:02:13;94499.34;;;13.69;66.85
36932;BME280;22847;42.654;23.370;2023-03-22T14:04:49;94505.88;;;13.81;66.90
36932;BME280;22847;42.654;23.370;2023-03-22T14:07:26;94498.47;;;13.84;66.45
36932;BME280;22847;42.654;23.370;2023-03-22T14:10:44;94482.41;;;13.88;66.61
36932;BME280;22847;42.654;23.370;2023-03-22T14:13:29;94478.31;;;13.93;66.64
36932;BME280;22847;42.654;23.370;2023-03-22T14:16:01;94466.69;;;13.88;65.79
36932;BME280;22847;42.654;23.370;2023-03-22T14:18:34;94440.97;;;13.91;64.88
36932;BME280;22847;42.654;23.370;2023-03-22T14:21:31;94492.94;;;14.26;65.00
36932;BME280;22847;42.654;23.370;2023-03-22T14:23:57;94476.06;;;14.21;65.27
36932;BME280;22847;42.654;23.370;2023-03-22T14:26:46;94459.13;;;13.93;65.26
36932;BME280;22847;42.654;23.370;2023-03-22T14:29:15;94548.16;;;14.25;64.48
36932;BME280;22847;42.654;23.370;2023-03-22T14:31:42;94486.91;;;14.18;65.54
36932;BME280;22847;42.654;23.370;2023-03-22T14:34:12;94443.44;;;13.84;64.85
36932;BME280;22847;42.654;23.370;2023-03-22T14:36:41;94500.19;;;14.16;64.32
36932;BME280;22847;42.654;23.370;2023-03-22T14:39:15;94488.03;;;14.15;64.60
36932;BME280;22847;42.654;23.370;2023-03-22T14:42:17;94501.75;;;13.95;65.41
36932;BME280;22847;42.654;23.370;2023-03-22T14:44:51;94285.19;;;12.52;65.05